Simla, Colorado
Current Conditions -  °F | °C
As of 12:55 AM on Wednesday 22 Oct 2014 (Local Time) from KLIC Reporting Station
Broken Clouds Broken Clouds  
Wind Chill: 49°   Ceiling: 12000
Heat Index: 49°   Visibility: 10mi
Dew Point: 43°   Wind: 0mph
Humidity: 80%   Direction: NA
Pressure: 29.98"   Gusts: NA
Location:  39.14°N, 104.08°W
Report Text: KLIC 220655Z AUTO 00000KT 10SM SCT100 BKN120 09/06 A2998 RMK AO2 SLP097 T00940061 402280011
Loading
Personal Weather Stations






























Interactive Weather Map
Tropical Storm Tracking
New forecast layout! Learn more

10-Day Weather Forecast

Advertisements
Track Severe Weather on mobile